sensor_id;sensor_type;location;lat;lon;timestamp;P1;durP1;ratioP1;P2;durP2;ratioP2
37115;SDS011;23025;41.996;23.098;2024-01-15T00:01:41;11.90;;;11.40;;
37115;SDS011;23025;41.996;23.098;2024-01-15T00:04:08;14.55;;;14.00;;
37115;SDS011;23025;41.996;23.098;2024-01-15T00:06:34;12.02;;;11.40;;
37115;SDS011;23025;41.996;23.098;2024-01-15T00:09:02;15.23;;;14.63;;
37115;SDS011;23025;41.996;23.098;2024-01-15T00:11:28;11.45;;;10.57;;
37115;SDS011;23025;41.996;23.098;2024-01-15T00:13:55;13.00;;;12.50;;
37115;SDS011;23025;41.996;23.098;2024-01-15T00:16:21;17.85;;;17.08;;
37115;SDS011;23025;41.996;23.098;2024-01-15T00:18:48;12.82;;;12.27;;
37115;SDS011;23025;41.996;23.098;2024-01-15T00:21:14;13.85;;;13.25;;
37115;SDS011;23025;41.996;23.098;2024-01-15T00:23:42;13.95;;;13.43;;
37115;SDS011;23025;41.996;23.098;2024-01-15T00:26:10;13.63;;;13.10;;
37115;SDS011;23025;41.996;23.098;2024-01-15T00:28:36;19.00;;;18.13;;
37115;SDS011;23025;41.996;23.098;2024-01-15T00:31:03;9.95;;;9.57;;
37115;SDS011;23025;41.996;23.098;2024-01-15T00:33:30;13.80;;;13.20;;
37115;SDS011;23025;41.996;23.098;2024-01-15T00:35:56;11.82;;;11.40;;
37115;SDS011;23025;41.996;23.098;2024-01-15T00:38:23;12.27;;;11.80;;
37115;SDS011;23025;41.996;23.098;2024-01-15T00:40:50;13.55;;;13.02;;
37115;SDS011;23025;41.996;23.098;2024-01-15T00:43:17;14.20;;;13.45;;
37115;SDS011;23025;41.996;23.098;2024-01-15T00:45:44;19.20;;;18.30;;
37115;SDS011;23025;41.996;23.098;2024-01-15T00:48:11;16.88;;;16.00;;
37115;SDS011;23025;41.996;23.098;2024-01-15T00:50:37;16.35;;;15.40;;
37115;SDS011;23025;41.996;23.098;2024-01-15T00:53:04;14.73;;;14.13;;
37115;SDS011;23025;41.996;23.098;2024-01-15T00:55:30;14.48;;;13.93;;
37115;SDS011;23025;41.996;23.098;2024-01-15T00:57:56;14.75;;;14.10;;
37115;SDS011;23025;41.996;23.098;2024-01-15T01:00:24;15.18;;;14.57;;
37115;SDS011;23025;41.996;23.098;2024-01-15T01:02:52;29.45;;;28.23;;
37115;SDS011;23025;41.996;23.098;2024-01-15T01:05:18;16.35;;;15.55;;
37115;SDS011;23025;41.996;23.098;2024-01-15T01:07:45;10.48;;;10.07;;
37115;SDS011;23025;41.996;23.098;2024-01-15T01:10:11;12.13;;;11.52;;
37115;SDS011;23025;41.996;23.098;2024-01-15T01:12:37;15.30;;;14.75;;
37115;SDS011;23025;41.996;23.098;2024-01-15T01:15:04;17.67;;;17.05;;
37115;SDS011;23025;41.996;23.098;2024-01-15T01:17:32;14.18;;;13.65;;
37115;SDS011;23025;41.996;23.098;2024-01-15T01:19:59;11.13;;;10.73;;
37115;SDS011;23025;41.996;23.098;2024-01-15T01:22:26;14.52;;;13.32;;
37115;SDS011;23025;41.996;23.098;2024-01-15T01:24:53;16.77;;;15.93;;
37115;SDS011;23025;41.996;23.098;2024-01-15T01:27:19;9.57;;;9.18;;
37115;SDS011;23025;41.996;23.098;2024-01-15T01:29:46;11.05;;;10.43;;
37115;SDS011;23025;41.996;23.098;2024-01-15T01:32:12;15.23;;;14.57;;
37115;SDS011;23025;41.996;23.098;2024-01-15T01:34:41;18.67;;;17.73;;
37115;SDS011;23025;41.996;23.098;2024-01-15T01:37:08;11.85;;;11.35;;
37115;SDS011;23025;41.996;23.098;2024-01-15T01:39:34;12.90;;;12.23;;
37115;SDS011;23025;41.996;23.098;2024-01-15T01:42:01;11.07;;;10.65;;
37115;SDS011;23025;41.996;23.098;2024-01-15T01:44:27;21.98;;;20.88;;
37115;SDS011;23025;41.996;23.098;2024-01-15T01:46:54;13.55;;;12.43;;
37115;SDS011;23025;41.996;23.098;2024-01-15T01:49:22;17.17;;;16.05;;
37115;SDS011;23025;41.996;23.098;2024-01-15T01:51:50;26.08;;;25.05;;
37115;SDS011;23025;41.996;23.098;2024-01-15T01:54:17;17.67;;;16.65;;
37115;SDS011;23025;41.996;23.098;2024-01-15T01:56:43;17.40;;;16.67;;
37115;SDS011;23025;41.996;23.098;2024-01-15T01:59:10;17.13;;;16.52;;
37115;SDS011;23025;41.996;23.098;2024-01-15T02:01:37;13.85;;;13.23;;
37115;SDS011;23025;41.996;23.098;2024-01-15T02:04:04;21.38;;;20.35;;
37115;SDS011;23025;41.996;23.098;2024-01-15T02:06:31;18.35;;;17.40;;
37115;SDS011;23025;41.996;23.098;2024-01-15T02:08:58;14.93;;;14.15;;
37115;SDS011;23025;41.996;23.098;2024-01-15T02:11:25;12.88;;;12.20;;
37115;SDS011;23025;41.996;23.098;2024-01-15T02:13:52;20.80;;;20.02;;
37115;SDS011;23025;41.996;23.098;2024-01-15T02:16:19;11.57;;;11.15;;
37115;SDS011;23025;41.996;23.098;2024-01-15T02:18:45;16.52;;;15.52;;
37115;SDS011;23025;41.996;23.098;2024-01-15T02:21:12;25.65;;;24.55;;
37115;SDS011;23025;41.996;23.098;2024-01-15T02:23:40;15.25;;;14.65;;
37115;SDS011;23025;41.996;23.098;2024-01-15T02:26:06;20.75;;;19.90;;
37115;SDS011;23025;41.996;23.098;2024-01-15T02:28:34;21.02;;;19.83;;
37115;SDS011;23025;41.996;23.098;2024-01-15T02:31:00;11.27;;;10.75;;
37115;SDS011;23025;41.996;23.098;2024-01-15T02:33:27;18.35;;;17.65;;
37115;SDS011;23025;41.996;23.098;2024-01-15T02:35:53;13.18;;;12.68;;
37115;SDS011;23025;41.996;23.098;2024-01-15T02:38:20;12.98;;;12.48;;
37115;SDS011;23025;41.996;23.098;2024-01-15T02:40:47;12.43;;;11.82;;
37115;SDS011;23025;41.996;23.098;2024-01-15T02:43:14;14.80;;;14.18;;
37115;SDS011;23025;41.996;23.098;2024-01-15T02:45:40;14.52;;;13.93;;
37115;SDS011;23025;41.996;23.098;2024-01-15T02:48:07;11.02;;;10.48;;
37115;SDS011;23025;41.996;23.098;2024-01-15T02:50:33;11.75;;;10.75;;
37115;SDS011;23025;41.996;23.098;2024-01-15T02:53:00;12.38;;;11.23;;
37115;SDS011;23025;41.996;23.098;2024-01-15T02:55:26;9.13;;;8.70;;
37115;SDS011;23025;41.996;23.098;2024-01-15T02:57:56;8.73;;;8.38;;
37115;SDS011;23025;41.996;23.098;2024-01-15T03:00:22;12.23;;;11.65;;
37115;SDS011;23025;41.996;23.098;2024-01-15T03:02:50;11.70;;;11.18;;
37115;SDS011;23025;41.996;23.098;2024-01-15T03:05:16;12.80;;;12.23;;
37115;SDS011;23025;41.996;23.098;2024-01-15T03:07:43;15.02;;;14.50;;
37115;SDS011;23025;41.996;23.098;2024-01-15T03:10:09;16.73;;;16.02;;
37115;SDS011;23025;41.996;23.098;2024-01-15T03:12:36;23.73;;;22.80;;
37115;SDS011;23025;41.996;23.098;2024-01-15T03:15:04;15.65;;;14.85;;
37115;SDS011;23025;41.996;23.098;2024-01-15T03:17:31;17.13;;;16.33;;
37115;SDS011;23025;41.996;23.098;2024-01-15T03:19:57;16.60;;;15.95;;
37115;SDS011;23025;41.996;23.098;2024-01-15T03:22:24;10.82;;;10.32;;
37115;SDS011;23025;41.996;23.098;2024-01-15T03:24:50;15.18;;;14.48;;
37115;SDS011;23025;41.996;23.098;2024-01-15T03:27:17;16.73;;;15.77;;
37115;SDS011;23025;41.996;23.098;2024-01-15T03:29:43;20.25;;;19.35;;
37115;SDS011;23025;41.996;23.098;2024-01-15T03:32:11;10.73;;;10.23;;
37115;SDS011;23025;41.996;23.098;2024-01-15T03:34:37;12.50;;;11.63;;
37115;SDS011;23025;41.996;23.098;2024-01-15T03:37:04;11.82;;;11.13;;
37115;SDS011;23025;41.996;23.098;2024-01-15T03:39:30;14.85;;;13.52;;
37115;SDS011;23025;41.996;23.098;2024-01-15T03:41:57;9.77;;;9.35;;
37115;SDS011;23025;41.996;23.098;2024-01-15T03:44:23;13.98;;;13.25;;
37115;SDS011;23025;41.996;23.098;2024-01-15T03:46:50;15.38;;;14.75;;
37115;SDS011;23025;41.996;23.098;2024-01-15T03:49:18;27.88;;;25.33;;
37115;SDS011;23025;41.996;23.098;2024-01-15T03:51:44;12.65;;;11.85;;
37115;SDS011;23025;41.996;23.098;2024-01-15T03:54:11;12.63;;;12.13;;
37115;SDS011;23025;41.996;23.098;2024-01-15T03:56:37;15.50;;;14.90;;
37115;SDS011;23025;41.996;23.098;2024-01-15T03:59:04;13.75;;;13.20;;
37115;SDS011;23025;41.996;23.098;2024-01-15T04:01:30;15.20;;;14.38;;
37115;SDS011;23025;41.996;23.098;2024-01-15T04:03:57;20.40;;;19.48;;
37115;SDS011;23025;41.996;23.098;2024-01-15T04:06:24;9.20;;;8.80;;
37115;SDS011;23025;41.996;23.098;2024-01-15T04:08:51;11.27;;;10.82;;
37115;SDS011;23025;41.996;23.098;2024-01-15T04:11:17;15.23;;;14.52;;
37115;SDS011;23025;41.996;23.098;2024-01-15T04:13:44;17.38;;;16.55;;
37115;SDS011;23025;41.996;23.098;2024-01-15T04:16:10;16.17;;;15.55;;
37115;SDS011;23025;41.996;23.098;2024-01-15T04:18:37;31.60;;;30.05;;
37115;SDS011;23025;41.996;23.098;2024-01-15T04:21:04;12.95;;;12.43;;
37115;SDS011;23025;41.996;23.098;2024-01-15T04:23:31;15.85;;;15.15;;
37115;SDS011;23025;41.996;23.098;2024-01-15T04:25:58;13.93;;;13.35;;
37115;SDS011;23025;41.996;23.098;2024-01-15T04:28:24;10.82;;;10.32;;
37115;SDS011;23025;41.996;23.098;2024-01-15T04:30:51;14.55;;;13.95;;
37115;SDS011;23025;41.996;23.098;2024-01-15T04:33:17;14.95;;;14.27;;
37115;SDS011;23025;41.996;23.098;2024-01-15T04:35:44;11.30;;;10.57;;
37115;SDS011;23025;41.996;23.098;2024-01-15T04:38:10;11.88;;;11.40;;
37115;SDS011;23025;41.996;23.098;2024-01-15T04:40:38;17.58;;;16.75;;
37115;SDS011;23025;41.996;23.098;2024-01-15T04:43:05;16.77;;;15.85;;
37115;SDS011;23025;41.996;23.098;2024-01-15T04:45:31;9.32;;;8.93;;
37115;SDS011;23025;41.996;23.098;2024-01-15T04:47:57;12.18;;;11.73;;
37115;SDS011;23025;41.996;23.098;2024-01-15T04:50:24;13.48;;;12.95;;
37115;SDS011;23025;41.996;23.098;2024-01-15T04:52:50;13.20;;;12.68;;
37115;SDS011;23025;41.996;23.098;2024-01-15T04:55:17;15.52;;;14.82;;
37115;SDS011;23025;41.996;23.098;2024-01-15T04:57:45;11.40;;;10.95;;
37115;SDS011;23025;41.996;23.098;2024-01-15T05:00:12;16.20;;;15.52;;
37115;SDS011;23025;41.996;23.098;2024-01-15T05:02:39;15.95;;;15.32;;
37115;SDS011;23025;41.996;23.098;2024-01-15T05:05:05;12.50;;;11.98;;
37115;SDS011;23025;41.996;23.098;2024-01-15T05:07:32;19.67;;;18.67;;
37115;SDS011;23025;41.996;23.098;2024-01-15T05:09:58;17.52;;;16.73;;
37115;SDS011;23025;41.996;23.098;2024-01-15T05:12:25;23.77;;;22.52;;
37115;SDS011;23025;41.996;23.098;2024-01-15T05:14:52;16.83;;;16.08;;
37115;SDS011;23025;41.996;23.098;2024-01-15T05:17:19;10.82;;;10.32;;
37115;SDS011;23025;41.996;23.098;2024-01-15T05:19:45;14.52;;;14.00;;
37115;SDS011;23025;41.996;23.098;2024-01-15T05:22:12;10.85;;;10.43;;
37115;SDS011;23025;41.996;23.098;2024-01-15T05:24:38;13.60;;;12.52;;
37115;SDS011;23025;41.996;23.098;2024-01-15T05:27:05;12.73;;;12.20;;
37115;SDS011;23025;41.996;23.098;2024-01-15T05:29:31;13.38;;;12.85;;
37115;SDS011;23025;41.996;23.098;2024-01-15T05:31:59;16.90;;;16.23;;
37115;SDS011;23025;41.996;23.098;2024-01-15T05:34:25;12.80;;;12.20;;
37115;SDS011;23025;41.996;23.098;2024-01-15T05:36:52;22.95;;;22.13;;
37115;SDS011;23025;41.996;23.098;2024-01-15T05:39:18;10.77;;;10.25;;
37115;SDS011;23025;41.996;23.098;2024-01-15T05:41:45;11.13;;;10.63;;
37115;SDS011;23025;41.996;23.098;2024-01-15T05:44:11;21.35;;;19.67;;
37115;SDS011;23025;41.996;23.098;2024-01-15T05:46:38;14.70;;;14.02;;
37115;SDS011;23025;41.996;23.098;2024-01-15T05:49:06;20.33;;;16.10;;
37115;SDS011;23025;41.996;23.098;2024-01-15T05:51:32;14.23;;;13.35;;
37115;SDS011;23025;41.996;23.098;2024-01-15T05:53:59;12.65;;;11.95;;
37115;SDS011;23025;41.996;23.098;2024-01-15T05:56:25;16.63;;;15.93;;
37115;SDS011;23025;41.996;23.098;2024-01-15T05:58:51;18.17;;;17.25;;
37115;SDS011;23025;41.996;23.098;2024-01-15T06:01:18;19.05;;;18.13;;
37115;SDS011;23025;41.996;23.098;2024-01-15T06:03:44;14.52;;;13.82;;
37115;SDS011;23025;41.996;23.098;2024-01-15T06:06:12;13.80;;;12.90;;
37115;SDS011;23025;41.996;23.098;2024-01-15T06:08:39;17.17;;;16.30;;
37115;SDS011;23025;41.996;23.098;2024-01-15T06:11:06;14.43;;;13.65;;
37115;SDS011;23025;41.996;23.098;2024-01-15T06:13:32;17.65;;;16.55;;
37115;SDS011;23025;41.996;23.098;2024-01-15T06:15:59;13.43;;;12.85;;
37115;SDS011;23025;41.996;23.098;2024-01-15T06:18:25;14.88;;;14.02;;
37115;SDS011;23025;41.996;23.098;2024-01-15T06:20:51;17.42;;;16.70;;
37115;SDS011;23025;41.996;23.098;2024-01-15T06:23:18;13.23;;;12.63;;
37115;SDS011;23025;41.996;23.098;2024-01-15T06:25:45;16.13;;;15.40;;
37115;SDS011;23025;41.996;23.098;2024-01-15T06:28:11;23.08;;;22.17;;
37115;SDS011;23025;41.996;23.098;2024-01-15T06:30:38;17.75;;;16.48;;
37115;SDS011;23025;41.996;23.098;2024-01-15T06:33:05;11.25;;;10.82;;
37115;SDS011;23025;41.996;23.098;2024-01-15T06:35:31;16.27;;;15.48;;
37115;SDS011;23025;41.996;23.098;2024-01-15T06:37:59;12.57;;;12.07;;
37115;SDS011;23025;41.996;23.098;2024-01-15T06:40:27;28.63;;;27.33;;
37115;SDS011;23025;41.996;23.098;2024-01-15T06:42:53;23.00;;;21.45;;
37115;SDS011;23025;41.996;23.098;2024-01-15T06:45:20;20.35;;;19.27;;
37115;SDS011;23025;41.996;23.098;2024-01-15T06:47:46;28.25;;;26.95;;
37115;SDS011;23025;41.996;23.098;2024-01-15T06:50:13;20.92;;;19.83;;
37115;SDS011;23025;41.996;23.098;2024-01-15T06:52:38;26.55;;;24.98;;
37115;SDS011;23025;41.996;23.098;2024-01-15T06:55:05;21.85;;;20.85;;
37115;SDS011;23025;41.996;23.098;2024-01-15T06:57:33;20.25;;;19.00;;
37115;SDS011;23025;41.996;23.098;2024-01-15T07:00:00;21.20;;;20.17;;
37115;SDS011;23025;41.996;23.098;2024-01-15T07:02:26;20.15;;;18.90;;
37115;SDS011;23025;41.996;23.098;2024-01-15T07:04:53;27.52;;;26.20;;
37115;SDS011;23025;41.996;23.098;2024-01-15T07:07:19;22.75;;;21.80;;
37115;SDS011;23025;41.996;23.098;2024-01-15T07:09:46;19.33;;;18.27;;
37115;SDS011;23025;41.996;23.098;2024-01-15T07:12:12;35.20;;;33.70;;
37115;SDS011;23025;41.996;23.098;2024-01-15T07:14:40;33.17;;;31.52;;
37115;SDS011;23025;41.996;23.098;2024-01-15T07:17:06;21.63;;;20.80;;
37115;SDS011;23025;41.996;23.098;2024-01-15T07:19:33;26.00;;;25.00;;
37115;SDS011;23025;41.996;23.098;2024-01-15T07:21:59;16.33;;;15.52;;
37115;SDS011;23025;41.996;23.098;2024-01-15T07:24:26;29.83;;;28.52;;
37115;SDS011;23025;41.996;23.098;2024-01-15T07:26:52;20.02;;;19.08;;
37115;SDS011;23025;41.996;23.098;2024-01-15T07:29:19;37.40;;;35.75;;
37115;SDS011;23025;41.996;23.098;2024-01-15T07:31:49;23.40;;;22.38;;
37115;SDS011;23025;41.996;23.098;2024-01-15T07:34:15;32.53;;;31.23;;
37115;SDS011;23025;41.996;23.098;2024-01-15T07:36:42;19.83;;;18.45;;
37115;SDS011;23025;41.996;23.098;2024-01-15T07:39:08;33.13;;;31.65;;
37115;SDS011;23025;41.996;23.098;2024-01-15T07:41:35;38.67;;;36.30;;
37115;SDS011;23025;41.996;23.098;2024-01-15T07:44:02;32.97;;;31.75;;
37115;SDS011;23025;41.996;23.098;2024-01-15T07:46:28;43.80;;;41.63;;
37115;SDS011;23025;41.996;23.098;2024-01-15T07:48:56;32.30;;;31.08;;
37115;SDS011;23025;41.996;23.098;2024-01-15T07:51:23;37.97;;;35.72;;
37115;SDS011;23025;41.996;23.098;2024-01-15T07:53:49;38.42;;;36.55;;
37115;SDS011;23025;41.996;23.098;2024-01-15T07:56:16;39.25;;;37.38;;
37115;SDS011;23025;41.996;23.098;2024-01-15T07:58:42;47.25;;;44.65;;
37115;SDS011;23025;41.996;23.098;2024-01-15T08:01:09;38.45;;;36.25;;
37115;SDS011;23025;41.996;23.098;2024-01-15T08:03:35;25.08;;;23.33;;
37115;SDS011;23025;41.996;23.098;2024-01-15T08:06:03;42.28;;;40.25;;
37115;SDS011;23025;41.996;23.098;2024-01-15T08:08:30;37.15;;;35.47;;
37115;SDS011;23025;41.996;23.098;2024-01-15T08:10:56;38.88;;;37.05;;
37115;SDS011;23025;41.996;23.098;2024-01-15T08:13:23;38.17;;;36.80;;
37115;SDS011;23025;41.996;23.098;2024-01-15T08:15:52;46.50;;;44.28;;
37115;SDS011;23025;41.996;23.098;2024-01-15T08:18:19;40.95;;;39.25;;
37115;SDS011;23025;41.996;23.098;2024-01-15T08:20:46;50.85;;;48.85;;
37115;SDS011;23025;41.996;23.098;2024-01-15T08:23:14;43.30;;;41.35;;
37115;SDS011;23025;41.996;23.098;2024-01-15T08:25:41;40.92;;;38.47;;
37115;SDS011;23025;41.996;23.098;2024-01-15T08:28:07;38.47;;;36.97;;
37115;SDS011;23025;41.996;23.098;2024-01-15T08:30:34;42.47;;;40.85;;
37115;SDS011;23025;41.996;23.098;2024-01-15T08:33:01;45.15;;;43.25;;
37115;SDS011;23025;41.996;23.098;2024-01-15T08:35:27;49.90;;;47.45;;
37115;SDS011;23025;41.996;23.098;2024-01-15T08:37:53;43.30;;;41.47;;
37115;SDS011;23025;41.996;23.098;2024-01-15T08:40:21;47.13;;;44.83;;
37115;SDS011;23025;41.996;23.098;2024-01-15T08:42:48;47.65;;;45.78;;
37115;SDS011;23025;41.996;23.098;2024-01-15T08:45:15;49.75;;;47.80;;
37115;SDS011;23025;41.996;23.098;2024-01-15T08:47:41;40.92;;;39.13;;
37115;SDS011;23025;41.996;23.098;2024-01-15T08:50:08;45.10;;;43.15;;
37115;SDS011;23025;41.996;23.098;2024-01-15T08:52:35;44.75;;;42.92;;
37115;SDS011;23025;41.996;23.098;2024-01-15T08:55:02;49.45;;;47.42;;
37115;SDS011;23025;41.996;23.098;2024-01-15T08:57:30;48.95;;;46.20;;
37115;SDS011;23025;41.996;23.098;2024-01-15T08:59:57;26.45;;;25.02;;
37115;SDS011;23025;41.996;23.098;2024-01-15T09:02:24;52.20;;;49.78;;
37115;SDS011;23025;41.996;23.098;2024-01-15T09:04:50;50.45;;;48.30;;
37115;SDS011;23025;41.996;23.098;2024-01-15T09:07:17;52.30;;;49.83;;
37115;SDS011;23025;41.996;23.098;2024-01-15T09:09:44;57.85;;;55.22;;
37115;SDS011;23025;41.996;23.098;2024-01-15T09:12:10;44.40;;;42.50;;
37115;SDS011;23025;41.996;23.098;2024-01-15T09:14:42;47.97;;;45.72;;
37115;SDS011;23025;41.996;23.098;2024-01-15T09:17:08;49.60;;;46.85;;
37115;SDS011;23025;41.996;23.098;2024-01-15T09:19:34;58.78;;;56.47;;
37115;SDS011;23025;41.996;23.098;2024-01-15T09:22:01;51.00;;;48.65;;
37115;SDS011;23025;41.996;23.098;2024-01-15T09:24:27;54.45;;;51.47;;
37115;SDS011;23025;41.996;23.098;2024-01-15T09:26:54;48.97;;;46.70;;
37115;SDS011;23025;41.996;23.098;2024-01-15T09:29:20;41.88;;;39.95;;
37115;SDS011;23025;41.996;23.098;2024-01-15T09:31:50;51.60;;;49.35;;
37115;SDS011;23025;41.996;23.098;2024-01-15T09:34:17;49.33;;;47.33;;
37115;SDS011;23025;41.996;23.098;2024-01-15T09:36:43;54.58;;;52.38;;
37115;SDS011;23025;41.996;23.098;2024-01-15T09:39:10;55.00;;;52.42;;
37115;SDS011;23025;41.996;23.098;2024-01-15T09:41:36;54.08;;;51.70;;
37115;SDS011;23025;41.996;23.098;2024-01-15T09:44:03;57.03;;;53.80;;
37115;SDS011;23025;41.996;23.098;2024-01-15T09:46:30;49.90;;;47.50;;
37115;SDS011;23025;41.996;23.098;2024-01-15T09:48:58;50.90;;;48.20;;
37115;SDS011;23025;41.996;23.098;2024-01-15T09:51:25;54.60;;;51.92;;
37115;SDS011;23025;41.996;23.098;2024-01-15T09:53:52;47.13;;;45.08;;
37115;SDS011;23025;41.996;23.098;2024-01-15T09:56:19;47.10;;;45.10;;
37115;SDS011;23025;41.996;23.098;2024-01-15T09:58:45;33.80;;;31.50;;
37115;SDS011;23025;41.996;23.098;2024-01-15T10:01:12;56.08;;;52.90;;
37115;SDS011;23025;41.996;23.098;2024-01-15T10:03:40;63.05;;;60.05;;
37115;SDS011;23025;41.996;23.098;2024-01-15T10:06:08;31.30;;;29.88;;
37115;SDS011;23025;41.996;23.098;2024-01-15T10:08:35;56.42;;;53.45;;
37115;SDS011;23025;41.996;23.098;2024-01-15T10:11:02;34.50;;;32.38;;
37115;SDS011;23025;41.996;23.098;2024-01-15T10:13:30;68.55;;;64.80;;
37115;SDS011;23025;41.996;23.098;2024-01-15T10:15:56;69.05;;;65.75;;
37115;SDS011;23025;41.996;23.098;2024-01-15T10:18:23;62.15;;;59.33;;
37115;SDS011;23025;41.996;23.098;2024-01-15T10:20:49;53.05;;;49.75;;
37115;SDS011;23025;41.996;23.098;2024-01-15T10:23:18;57.63;;;55.17;;
37115;SDS011;23025;41.996;23.098;2024-01-15T10:25:45;53.88;;;51.45;;
37115;SDS011;23025;41.996;23.098;2024-01-15T10:28:13;61.13;;;58.38;;
37115;SDS011;23025;41.996;23.098;2024-01-15T10:30:39;60.88;;;57.50;;
37115;SDS011;23025;41.996;23.098;2024-01-15T10:33:06;59.70;;;56.47;;
37115;SDS011;23025;41.996;23.098;2024-01-15T10:35:32;61.83;;;59.15;;
37115;SDS011;23025;41.996;23.098;2024-01-15T10:37:59;63.88;;;61.25;;
37115;SDS011;23025;41.996;23.098;2024-01-15T10:40:27;59.72;;;57.03;;
37115;SDS011;23025;41.996;23.098;2024-01-15T10:42:54;61.30;;;58.53;;
37115;SDS011;23025;41.996;23.098;2024-01-15T10:45:20;67.95;;;64.43;;
37115;SDS011;23025;41.996;23.098;2024-01-15T10:47:47;65.75;;;62.55;;
37115;SDS011;23025;41.996;23.098;2024-01-15T10:50:14;62.85;;;58.97;;
37115;SDS011;23025;41.996;23.098;2024-01-15T10:52:41;57.50;;;54.13;;
37115;SDS011;23025;41.996;23.098;2024-01-15T10:55:08;70.60;;;67.05;;
37115;SDS011;23025;41.996;23.098;2024-01-15T10:57:36;69.15;;;65.72;;
37115;SDS011;23025;41.996;23.098;2024-01-15T11:00:04;68.40;;;65.15;;
37115;SDS011;23025;41.996;23.098;2024-01-15T11:02:31;76.32;;;72.70;;
37115;SDS011;23025;41.996;23.098;2024-01-15T11:04:58;74.03;;;69.95;;
37115;SDS011;23025;41.996;23.098;2024-01-15T11:07:25;91.47;;;87.22;;
37115;SDS011;23025;41.996;23.098;2024-01-15T11:09:52;77.97;;;73.75;;
37115;SDS011;23025;41.996;23.098;2024-01-15T11:12:19;75.25;;;72.40;;
37115;SDS011;23025;41.996;23.098;2024-01-15T11:14:47;76.57;;;72.85;;
37115;SDS011;23025;41.996;23.098;2024-01-15T11:17:14;66.03;;;62.58;;
37115;SDS011;23025;41.996;23.098;2024-01-15T11:19:44;48.85;;;45.67;;
37115;SDS011;23025;41.996;23.098;2024-01-15T11:22:47;70.15;;;66.30;;
37115;SDS011;23025;41.996;23.098;2024-01-15T11:25:01;64.63;;;61.95;;
37115;SDS011;23025;41.996;23.098;2024-01-15T11:27:39;66.25;;;62.33;;
37115;SDS011;23025;41.996;23.098;2024-01-15T11:30:09;67.43;;;64.07;;
37115;SDS011;23025;41.996;23.098;2024-01-15T11:32:36;64.20;;;60.63;;
37115;SDS011;23025;41.996;23.098;2024-01-15T11:35:06;84.60;;;80.00;;
37115;SDS011;23025;41.996;23.098;2024-01-15T11:40:20;76.53;;;72.97;;
37115;SDS011;23025;41.996;23.098;2024-01-15T11:42:47;85.45;;;80.85;;
37115;SDS011;23025;41.996;23.098;2024-01-15T11:45:16;83.97;;;79.53;;
37115;SDS011;23025;41.996;23.098;2024-01-15T11:47:51;90.80;;;85.50;;
37115;SDS011;23025;41.996;23.098;2024-01-15T11:50:24;110.28;;;103.95;;
37115;SDS011;23025;41.996;23.098;2024-01-15T11:52:53;95.88;;;90.90;;
37115;SDS011;23025;41.996;23.098;2024-01-15T11:55:24;94.50;;;88.70;;
37115;SDS011;23025;41.996;23.098;2024-01-15T11:57:53;98.43;;;92.72;;
37115;SDS011;23025;41.996;23.098;2024-01-15T12:00:22;99.38;;;94.40;;
37115;SDS011;23025;41.996;23.098;2024-01-15T12:02:48;99.85;;;95.60;;
37115;SDS011;23025;41.996;23.098;2024-01-15T12:05:16;93.65;;;89.43;;
37115;SDS011;23025;41.996;23.098;2024-01-15T12:07:43;85.15;;;81.18;;
37115;SDS011;23025;41.996;23.098;2024-01-15T12:10:11;88.15;;;85.10;;
37115;SDS011;23025;41.996;23.098;2024-01-15T12:12:39;83.05;;;79.88;;
37115;SDS011;23025;41.996;23.098;2024-01-15T12:15:09;93.38;;;90.25;;
37115;SDS011;23025;41.996;23.098;2024-01-15T12:17:37;102.78;;;99.35;;
37115;SDS011;23025;41.996;23.098;2024-01-15T12:20:04;97.57;;;94.30;;
37115;SDS011;23025;41.996;23.098;2024-01-15T12:22:31;123.47;;;119.53;;
37115;SDS011;23025;41.996;23.098;2024-01-15T12:24:58;80.75;;;78.03;;
37115;SDS011;23025;41.996;23.098;2024-01-15T12:27:25;101.78;;;98.47;;
37115;SDS011;23025;41.996;23.098;2024-01-15T12:29:52;106.85;;;103.35;;
37115;SDS011;23025;41.996;23.098;2024-01-15T12:32:19;111.47;;;107.80;;
37115;SDS011;23025;41.996;23.098;2024-01-15T12:34:47;125.22;;;121.30;;
37115;SDS011;23025;41.996;23.098;2024-01-15T12:37:14;238.35;;;231.65;;
37115;SDS011;23025;41.996;23.098;2024-01-15T12:39:43;118.80;;;115.00;;
37115;SDS011;23025;41.996;23.098;2024-01-15T12:42:09;153.63;;;148.80;;
37115;SDS011;23025;41.996;23.098;2024-01-15T12:44:36;132.30;;;128.15;;
37115;SDS011;23025;41.996;23.098;2024-01-15T12:49:29;131.85;;;127.68;;
37115;SDS011;23025;41.996;23.098;2024-01-15T12:51:57;122.80;;;118.70;;
37115;SDS011;23025;41.996;23.098;2024-01-15T12:54:24;116.28;;;112.22;;
37115;SDS011;23025;41.996;23.098;2024-01-15T12:56:51;124.15;;;120.13;;
37115;SDS011;23025;41.996;23.098;2024-01-15T12:59:17;130.07;;;125.88;;
37115;SDS011;23025;41.996;23.098;2024-01-15T13:01:44;133.73;;;129.52;;
37115;SDS011;23025;41.996;23.098;2024-01-15T13:04:11;142.05;;;137.63;;
37115;SDS011;23025;41.996;23.098;2024-01-15T13:06:38;123.38;;;119.40;;
37115;SDS011;23025;41.996;23.098;2024-01-15T13:09:06;137.10;;;132.75;;
37115;SDS011;23025;41.996;23.098;2024-01-15T13:11:35;121.25;;;117.38;;
37115;SDS011;23025;41.996;23.098;2024-01-15T13:14:01;130.65;;;126.60;;
37115;SDS011;23025;41.996;23.098;2024-01-15T13:16:28;125.85;;;121.85;;
37115;SDS011;23025;41.996;23.098;2024-01-15T13:18:54;130.73;;;126.55;;
37115;SDS011;23025;41.996;23.098;2024-01-15T13:21:21;122.20;;;118.35;;
37115;SDS011;23025;41.996;23.098;2024-01-15T13:23:47;115.22;;;111.50;;
37115;SDS011;23025;41.996;23.098;2024-01-15T13:26:15;127.93;;;123.82;;
37115;SDS011;23025;41.996;23.098;2024-01-15T13:28:43;125.25;;;121.28;;
37115;SDS011;23025;41.996;23.098;2024-01-15T13:31:09;124.38;;;120.35;;
37115;SDS011;23025;41.996;23.098;2024-01-15T13:33:36;128.68;;;124.55;;
37115;SDS011;23025;41.996;23.098;2024-01-15T13:36:03;140.35;;;135.90;;
37115;SDS011;23025;41.996;23.098;2024-01-15T13:38:33;136.93;;;132.63;;
37115;SDS011;23025;41.996;23.098;2024-01-15T13:41:01;120.88;;;117.03;;
37115;SDS011;23025;41.996;23.098;2024-01-15T13:43:29;132.13;;;127.97;;
37115;SDS011;23025;41.996;23.098;2024-01-15T13:45:56;123.28;;;119.32;;
37115;SDS011;23025;41.996;23.098;2024-01-15T13:48:22;128.27;;;124.28;;
37115;SDS011;23025;41.996;23.098;2024-01-15T13:50:49;127.95;;;123.78;;
37115;SDS011;23025;41.996;23.098;2024-01-15T13:53:16;133.85;;;129.57;;
37115;SDS011;23025;41.996;23.098;2024-01-15T13:55:42;130.13;;;126.00;;
37115;SDS011;23025;41.996;23.098;2024-01-15T13:58:08;87.78;;;84.35;;
37115;SDS011;23025;41.996;23.098;2024-01-15T14:00:36;133.35;;;129.13;;
37115;SDS011;23025;41.996;23.098;2024-01-15T14:03:04;122.63;;;118.70;;
37115;SDS011;23025;41.996;23.098;2024-01-15T14:05:31;124.22;;;120.30;;
37115;SDS011;23025;41.996;23.098;2024-01-15T14:07:57;115.03;;;111.30;;
37115;SDS011;23025;41.996;23.098;2024-01-15T14:10:24;121.50;;;117.57;;